createdAt,value
2022-11-06T00:01:18.553Z,1.27
2022-11-06T00:03:48.478Z,1.25
2022-11-06T00:06:52.035Z,1.21
2022-11-06T00:09:41.903Z,1.21
2022-11-06T00:12:12.948Z,1.10
2022-11-06T00:14:43.524Z,1.05
2022-11-06T00:17:13.793Z,1.11
2022-11-06T00:19:45.542Z,1.06
2022-11-06T00:22:17.998Z,1.03
2022-11-06T00:24:49.505Z,1.05
2022-11-06T00:27:37.051Z,1.06
2022-11-06T00:33:41.125Z,0.98
2022-11-06T00:36:15.530Z,0.91
2022-11-06T00:39:01.758Z,0.91
2022-11-06T00:57:16.603Z,0.82
2022-11-06T00:59:46.428Z,0.79
2022-11-06T01:02:17.988Z,0.76
2022-11-06T01:04:47.607Z,0.74
2022-11-06T01:07:17.467Z,0.72
2022-11-06T01:09:47.317Z,0.59
2022-11-06T01:12:16.803Z,0.59
2022-11-06T01:14:46.642Z,0.38
2022-11-06T01:17:16.144Z,0.45
2022-11-06T01:19:46.216Z,0.49
2022-11-06T01:22:15.776Z,0.47
2022-11-06T01:24:45.658Z,0.44
2022-11-06T01:27:30.584Z,0.47
2022-11-06T01:29:46.792Z,0.43
2022-11-06T01:32:16.490Z,0.44
2022-11-06T01:34:46.843Z,0.41
2022-11-06T01:37:16.579Z,0.42
2022-11-06T01:39:46.362Z,0.46
2022-11-06T01:42:18.702Z,0.43
2022-11-06T01:45:19.903Z,0.39
2022-11-06T01:47:49.146Z,0.41
2022-11-06T01:50:19.674Z,0.37
2022-11-06T01:52:51.642Z,0.38
2022-11-06T01:55:26.904Z,0.37
2022-11-06T01:57:58.013Z,0.36
2022-11-06T02:00:27.954Z,0.34
2022-11-06T02:02:57.998Z,0.33
2022-11-06T02:05:28.241Z,0.30
2022-11-06T02:08:00.448Z,0.27
2022-11-06T02:10:31.165Z,0.27
2022-11-06T02:13:18.718Z,0.29
2022-11-06T02:15:54.046Z,0.24
2022-11-06T02:18:29.340Z,0.21
2022-11-06T02:21:19.879Z,0.17
2022-11-06T02:23:52.650Z,0.12
2022-11-06T02:26:31.153Z,0.12
2022-11-06T02:29:12.779Z,0.08
2022-11-06T02:31:45.435Z,0.17
2022-11-06T02:34:18.507Z,0.12
2022-11-06T02:36:57.150Z,0.10
2022-11-06T02:39:29.334Z,0.03
2022-11-06T02:42:00.729Z,0.00
2022-11-06T02:44:34.209Z,0.00
2022-11-06T02:47:12.906Z,-0.01
2022-11-06T02:49:57.307Z,-0.01
2022-11-06T02:52:30.440Z,0.01
2022-11-06T02:55:03.262Z,-0.01
2022-11-06T02:57:36.270Z,-0.02
2022-11-06T03:00:12.672Z,-0.15
2022-11-06T03:03:00.855Z,-0.38
2022-11-06T03:05:39.541Z,-0.32
2022-11-06T03:08:12.457Z,-0.30
2022-11-06T03:10:48.226Z,-0.25
2022-11-06T03:13:50.687Z,-0.16
2022-11-06T03:16:28.971Z,-0.19
2022-11-06T03:19:04.842Z,-0.24
2022-11-06T03:21:49.706Z,-0.22
2022-11-06T03:24:25.731Z,-0.23
2022-11-06T03:26:56.031Z,-0.21
2022-11-06T03:29:29.243Z,-0.12
2022-11-06T03:32:18.768Z,-0.41
2022-11-06T03:35:09.093Z,-0.41
2022-11-06T03:37:45.727Z,-0.59
2022-11-06T03:40:18.883Z,-0.49
2022-11-06T03:42:51.768Z,-0.42
2022-11-06T03:45:24.740Z,-0.37
2022-11-06T03:47:57.610Z,-0.35
2022-11-06T03:50:39.271Z,-0.34
2022-11-06T03:53:14.538Z,-0.43
2022-11-06T03:55:50.116Z,-0.61
2022-11-06T03:58:22.743Z,-0.55
2022-11-06T04:00:55.782Z,-0.53
2022-11-06T04:03:34.350Z,-0.50
2022-11-06T04:06:18.828Z,-0.54
2022-11-06T04:09:08.729Z,-0.56
2022-11-06T04:11:58.772Z,-0.53
2022-11-06T04:14:30.613Z,-0.49
2022-11-06T04:17:03.422Z,-0.47
2022-11-06T04:19:33.402Z,-0.51
2022-11-06T04:22:18.153Z,-0.54
2022-11-06T04:25:28.027Z,-0.54
2022-11-06T04:28:15.835Z,-0.49
2022-11-06T04:30:51.446Z,-0.46
2022-11-06T04:33:33.419Z,-0.63
2022-11-06T04:36:21.181Z,-0.67
2022-11-06T04:38:54.512Z,-0.60
2022-11-06T04:41:31.542Z,-0.56
2022-11-06T04:44:06.867Z,-0.52
2022-11-06T04:46:39.706Z,-0.51
2022-11-06T04:49:10.976Z,-0.49
2022-11-06T04:51:44.154Z,-0.65
2022-11-06T04:54:15.219Z,-0.68
2022-11-06T04:56:46.315Z,-0.60
2022-11-06T04:59:17.775Z,-0.60
2022-11-06T05:01:48.017Z,-0.55
2022-11-06T05:04:17.724Z,-0.76
2022-11-06T05:06:47.834Z,-0.78
2022-11-06T05:09:17.420Z,-0.71
2022-11-06T05:11:47.223Z,-0.67
2022-11-06T05:14:16.746Z,-0.77
2022-11-06T05:16:46.542Z,-0.90
2022-11-06T05:19:16.291Z,-0.84
2022-11-06T05:22:03.923Z,-0.86
2022-11-06T05:24:33.722Z,-0.84
2022-11-06T05:27:03.831Z,-0.86
2022-11-06T05:29:33.609Z,-0.79
2022-11-06T05:32:03.475Z,-0.79
2022-11-06T05:34:33.269Z,-0.76
2022-11-06T05:37:03.430Z,-0.73
2022-11-06T05:39:36.555Z,-0.71
2022-11-06T05:42:04.775Z,-0.70
2022-11-06T05:44:34.551Z,-0.70
2022-11-06T05:47:04.362Z,-0.89
2022-11-06T05:49:34.159Z,-0.83
2022-11-06T05:52:04.017Z,-0.95
2022-11-06T05:54:34.166Z,-0.97
2022-11-06T05:57:04.028Z,-0.90
2022-11-06T05:59:34.124Z,-0.85
2022-11-06T06:02:04.054Z,-0.81
2022-11-06T06:04:33.971Z,-0.87
2022-11-06T06:07:03.727Z,-0.80
2022-11-06T06:09:33.983Z,-0.80
2022-11-06T06:12:03.810Z,-0.75
2022-11-06T06:14:33.617Z,-0.77
2022-11-06T06:17:03.403Z,-0.91
2022-11-06T06:19:33.321Z,-0.83
2022-11-06T06:22:03.125Z,-0.81
2022-11-06T06:24:33.332Z,-0.77
2022-11-06T06:27:03.213Z,-0.71
2022-11-06T06:29:33.379Z,-0.63
2022-11-06T06:32:04.236Z,-0.71
2022-11-06T06:34:34.046Z,-0.81
2022-11-06T06:37:03.963Z,-0.61
2022-11-06T06:39:33.645Z,-0.51
2022-11-06T06:42:03.442Z,-0.45
2022-11-06T06:44:33.508Z,-0.41
2022-11-06T06:47:03.286Z,-0.48
2022-11-06T06:49:33.380Z,-0.39
2022-11-06T06:52:04.237Z,-0.38
2022-11-06T06:54:34.034Z,-0.51
2022-11-06T06:57:04.267Z,-0.39
2022-11-06T06:59:34.120Z,-0.37
2022-11-06T07:02:03.995Z,-0.27
2022-11-06T07:04:33.769Z,-0.22
2022-11-06T07:07:03.557Z,-0.15
2022-11-06T07:09:34.026Z,-0.08
2022-11-06T07:12:04.300Z,-0.03
2022-11-06T07:14:34.167Z,0.09
2022-11-06T07:17:03.979Z,0.14
2022-11-06T07:19:34.086Z,0.19
2022-11-06T07:22:03.963Z,0.21
2022-11-06T07:24:34.081Z,0.27
2022-11-06T07:27:03.862Z,0.32
2022-11-06T07:29:33.756Z,0.46
2022-11-06T07:32:03.655Z,0.37
2022-11-06T07:34:34.241Z,0.40
2022-11-06T07:37:08.584Z,0.48
2022-11-06T07:39:39.113Z,0.54
2022-11-06T07:42:07.880Z,0.61
2022-11-06T07:44:37.754Z,0.69
2022-11-06T07:47:07.245Z,0.82
2022-11-06T07:49:37.063Z,0.94
2022-11-06T07:52:07.680Z,1.11
2022-11-06T07:54:37.350Z,1.18
2022-11-06T07:57:06.953Z,1.29
2022-11-06T07:59:36.820Z,1.42
2022-11-06T08:02:06.835Z,1.57
2022-11-06T08:04:36.982Z,1.76
2022-11-06T08:07:07.162Z,2.05
2022-11-06T08:09:37.340Z,2.47
2022-11-06T08:12:07.116Z,3.01
2022-11-06T08:14:41.300Z,3.47
2022-11-06T08:17:08.523Z,3.93
2022-11-06T08:19:38.327Z,4.43
2022-11-06T08:22:09.016Z,4.93
2022-11-06T08:24:38.799Z,5.37
2022-11-06T08:27:08.593Z,5.64
2022-11-06T08:29:41.500Z,6.16
2022-11-06T08:32:09.995Z,5.84
2022-11-06T08:34:39.776Z,6.33
2022-11-06T08:37:11.604Z,7.17
2022-11-06T08:39:41.690Z,7.19
2022-11-06T08:42:12.000Z,7.39
2022-11-06T08:44:42.499Z,7.96
2022-11-06T08:47:12.620Z,8.32
2022-11-06T08:49:42.397Z,8.77
2022-11-06T08:52:12.340Z,9.14
2022-11-06T08:54:42.025Z,8.95
2022-11-06T08:57:11.703Z,8.95
2022-11-06T08:59:41.500Z,9.62
2022-11-06T09:02:17.272Z,9.68
2022-11-06T09:04:47.095Z,9.52
2022-11-06T09:07:17.775Z,9.52
2022-11-06T09:09:47.343Z,10.12
2022-11-06T09:12:16.861Z,10.26
2022-11-06T09:14:46.679Z,10.03
2022-11-06T09:17:16.636Z,10.04
2022-11-06T09:19:46.450Z,10.40
2022-11-06T09:22:16.257Z,10.42
2022-11-06T09:25:04.822Z,10.50
2022-11-06T09:27:17.994Z,10.23
2022-11-06T09:29:48.857Z,10.38
2022-11-06T09:32:18.639Z,10.46
2022-11-06T09:34:48.457Z,10.01
2022-11-06T09:37:18.414Z,10.73
2022-11-06T09:39:48.217Z,10.74
2022-11-06T09:42:23.670Z,10.79
2022-11-06T09:45:11.277Z,10.23
2022-11-06T09:47:44.703Z,11.08
2022-11-06T09:50:17.447Z,11.08
2022-11-06T09:53:09.444Z,11.18
2022-11-06T09:55:42.529Z,11.49
2022-11-06T09:58:18.068Z,11.76
2022-11-06T10:00:49.503Z,11.38
2022-11-06T10:03:22.485Z,11.59
2022-11-06T10:05:54.100Z,11.80
2022-11-06T10:08:27.121Z,11.47
2022-11-06T10:11:18.057Z,11.21
2022-11-06T10:14:02.566Z,11.60
2022-11-06T10:16:40.866Z,11.61
2022-11-06T10:19:19.546Z,12.41
2022-11-06T10:22:04.518Z,11.93
2022-11-06T10:24:55.322Z,11.67
2022-11-06T10:27:30.798Z,11.77
2022-11-06T10:30:20.360Z,11.69
2022-11-06T10:33:11.387Z,11.51
2022-11-06T10:36:05.287Z,11.80
2022-11-06T10:38:38.202Z,11.80
2022-11-06T10:41:16.897Z,12.07
2022-11-06T10:43:58.493Z,11.40
2022-11-06T10:46:46.335Z,11.87
2022-11-06T10:49:22.070Z,11.65
2022-11-06T10:52:13.064Z,11.58
2022-11-06T10:54:48.454Z,11.56
2022-11-06T10:57:32.762Z,11.56
2022-11-06T11:00:03.270Z,11.86
2022-11-06T11:02:36.787Z,11.45
2022-11-06T11:05:12.170Z,11.52
2022-11-06T11:07:43.709Z,11.57
2022-11-06T11:10:28.492Z,11.81
2022-11-06T11:13:05.488Z,11.70
2022-11-06T11:15:35.864Z,11.86
2022-11-06T11:18:34.222Z,11.83
2022-11-06T11:21:16.356Z,12.06
2022-11-06T11:24:13.123Z,11.81
2022-11-06T11:26:48.785Z,11.64
2022-11-06T11:29:21.126Z,11.67
2022-11-06T11:32:00.254Z,11.89
2022-11-06T11:34:42.352Z,11.85
2022-11-06T11:37:13.519Z,12.02
2022-11-06T11:39:45.628Z,11.89
2022-11-06T11:42:27.033Z,11.96
2022-11-06T11:45:17.680Z,12.04
2022-11-06T11:47:52.458Z,12.10
2022-11-06T11:50:27.735Z,11.91
2022-11-06T11:53:10.277Z,11.82
2022-11-06T11:55:42.637Z,12.42
2022-11-06T11:58:27.110Z,12.23
2022-11-06T12:01:02.421Z,12.09
2022-11-06T12:03:38.310Z,11.89
2022-11-06T12:06:13.715Z,11.89
2022-11-06T12:08:54.149Z,12.09
2022-11-06T12:11:27.257Z,12.20
2022-11-06T12:14:21.191Z,12.26
2022-11-06T12:16:53.481Z,12.37
2022-11-06T12:19:25.257Z,12.27
2022-11-06T12:21:58.114Z,12.25
2022-11-06T12:24:39.850Z,12.35
2022-11-06T12:27:10.796Z,12.72
2022-11-06T12:29:59.704Z,12.45
2022-11-06T12:32:56.689Z,12.36
2022-11-06T12:35:35.134Z,12.69
2022-11-06T12:38:28.862Z,12.56
2022-11-06T12:41:16.884Z,12.64
2022-11-06T12:43:48.967Z,12.66
2022-11-06T12:46:39.646Z,12.66
2022-11-06T12:49:26.883Z,12.68
2022-11-06T12:52:17.364Z,12.31
2022-11-06T12:54:55.655Z,12.11
2022-11-06T12:57:46.437Z,12.29
2022-11-06T13:00:31.267Z,12.50
2022-11-06T13:03:19.189Z,12.36
2022-11-06T13:06:15.748Z,12.44
2022-11-06T13:08:57.541Z,12.07
2022-11-06T13:11:32.960Z,12.05
2022-11-06T13:14:14.148Z,11.98
2022-11-06T13:17:01.758Z,12.08
2022-11-06T13:19:53.906Z,11.98
2022-11-06T13:22:29.365Z,11.71
2022-11-06T13:25:17.138Z,11.47
2022-11-06T13:28:04.638Z,11.72
2022-11-06T13:30:36.874Z,11.65
2022-11-06T13:33:25.053Z,11.53
2022-11-06T13:35:55.787Z,11.58
2022-11-06T13:38:28.361Z,11.36
2022-11-06T13:41:04.142Z,11.20
2022-11-06T13:43:45.674Z,11.23
2022-11-06T13:46:24.180Z,11.05
2022-11-06T13:49:08.874Z,11.25
2022-11-06T13:51:56.748Z,11.25
2022-11-06T13:54:41.509Z,11.28
2022-11-06T13:57:20.220Z,11.08
2022-11-06T14:00:02.696Z,11.00
2022-11-06T14:03:09.218Z,11.00
2022-11-06T14:05:59.902Z,11.00
2022-11-06T14:08:41.242Z,10.96
2022-11-06T14:11:19.515Z,11.12
2022-11-06T14:14:04.559Z,10.85
2022-11-06T14:16:40.366Z,10.81
2022-11-06T14:19:30.397Z,10.57
2022-11-06T14:22:19.819Z,10.56
2022-11-06T14:24:49.598Z,10.53
2022-11-06T14:27:28.796Z,10.69
2022-11-06T14:30:07.864Z,10.43
2022-11-06T14:32:41.239Z,10.42
2022-11-06T14:35:36.406Z,10.54
2022-11-06T14:38:16.449Z,10.54
2022-11-06T14:40:46.727Z,10.40
2022-11-06T14:43:24.695Z,10.23
2022-11-06T14:46:06.460Z,10.05
2022-11-06T14:48:42.116Z,9.98
2022-11-06T14:51:13.333Z,9.86
2022-11-06T14:53:52.532Z,9.66
2022-11-06T14:56:27.790Z,9.78
2022-11-06T14:59:00.487Z,9.63
2022-11-06T15:01:33.237Z,9.57
2022-11-06T15:04:06.259Z,9.42
2022-11-06T15:06:39.103Z,9.42
2022-11-06T15:09:14.380Z,9.29
2022-11-06T15:11:56.460Z,9.14
2022-11-06T15:14:29.648Z,8.90
2022-11-06T15:17:05.187Z,8.90
2022-11-06T15:19:44.561Z,8.84
2022-11-06T15:22:20.141Z,8.93
2022-11-06T15:25:15.019Z,8.77
2022-11-06T15:27:57.161Z,8.64
2022-11-06T15:30:29.472Z,8.43
2022-11-06T15:33:05.432Z,8.88
2022-11-06T15:35:36.836Z,8.47
2022-11-06T15:38:10.388Z,8.33
2022-11-06T15:40:42.232Z,8.52
2022-11-06T15:43:27.046Z,8.29
2022-11-06T15:46:07.337Z,8.38
2022-11-06T15:48:37.020Z,7.93
2022-11-06T15:51:21.838Z,7.87
2022-11-06T15:53:51.722Z,7.80
2022-11-06T15:56:24.512Z,8.04
2022-11-06T15:59:12.161Z,7.88
2022-11-06T16:01:43.200Z,7.77
2022-11-06T16:04:16.263Z,7.87
2022-11-06T16:06:49.221Z,7.72
2022-11-06T16:09:24.582Z,7.67
2022-11-06T16:11:54.897Z,7.62
2022-11-06T16:14:25.978Z,7.61
2022-11-06T16:16:58.281Z,7.59
2022-11-06T16:19:33.678Z,7.55
2022-11-06T16:22:12.386Z,7.41
2022-11-06T16:24:54.107Z,7.72
2022-11-06T16:27:24.942Z,7.49
2022-11-06T16:30:02.576Z,7.49
2022-11-06T16:32:35.932Z,7.53
2022-11-06T16:35:26.150Z,7.27
2022-11-06T16:38:12.725Z,7.27
2022-11-06T16:40:52.191Z,7.47
2022-11-06T16:43:24.378Z,7.57
2022-11-06T16:46:02.233Z,7.24
2022-11-06T16:48:37.271Z,7.43
2022-11-06T16:51:13.160Z,7.14
2022-11-06T16:54:03.794Z,7.11
2022-11-06T16:56:35.636Z,6.97
2022-11-06T16:59:12.368Z,6.90
2022-11-06T17:01:48.408Z,6.83
2022-11-06T17:04:29.929Z,6.70
2022-11-06T17:06:59.189Z,6.88
2022-11-06T17:09:34.215Z,6.88
2022-11-06T17:12:04.955Z,6.68
2022-11-06T17:14:34.349Z,6.75
2022-11-06T17:17:04.942Z,6.49
2022-11-06T17:19:35.153Z,6.41
2022-11-06T17:22:07.996Z,6.76
2022-11-06T17:24:38.343Z,6.67
2022-11-06T17:27:10.257Z,6.43
2022-11-06T17:29:40.136Z,6.59
2022-11-06T17:32:09.666Z,6.50
2022-11-06T17:34:39.483Z,6.23
2022-11-06T17:37:11.468Z,6.20
2022-11-06T17:39:41.561Z,6.49
2022-11-06T17:42:11.340Z,6.10
2022-11-06T17:44:41.136Z,6.23
2022-11-06T17:47:10.784Z,6.04
2022-11-06T17:49:40.601Z,6.27
2022-11-06T17:52:11.317Z,6.27
2022-11-06T17:54:41.514Z,5.97
2022-11-06T17:57:11.976Z,6.02
2022-11-06T17:59:41.636Z,5.73
2022-11-06T18:02:29.807Z,5.57
2022-11-06T18:04:49.714Z,5.57
2022-11-06T18:07:20.018Z,5.74
2022-11-06T18:09:50.192Z,5.74
2022-11-06T18:12:22.069Z,5.93
2022-11-06T18:14:52.039Z,5.81
2022-11-06T18:17:21.787Z,5.47
2022-11-06T18:19:51.845Z,5.66
2022-11-06T18:22:21.728Z,5.44
2022-11-06T18:24:51.582Z,5.49
2022-11-06T18:27:21.355Z,5.41
2022-11-06T18:29:51.177Z,5.39
2022-11-06T18:32:20.904Z,5.39
2022-11-06T18:34:50.713Z,5.26
2022-11-06T18:37:20.646Z,5.39
2022-11-06T18:39:50.654Z,5.39
2022-11-06T18:42:20.306Z,5.22
2022-11-06T18:44:50.177Z,5.10
2022-11-06T18:47:21.483Z,5.30
2022-11-06T18:49:51.370Z,5.18
2022-11-06T18:52:44.390Z,5.18
2022-11-06T18:54:56.937Z,5.00
2022-11-06T18:57:24.955Z,4.86
2022-11-06T18:59:54.466Z,4.83
2022-11-06T19:02:24.595Z,5.22
2022-11-06T19:04:54.315Z,4.77
2022-11-06T19:07:24.108Z,5.05
2022-11-06T19:09:54.059Z,4.74
2022-11-06T19:12:23.620Z,4.85
2022-11-06T19:14:53.409Z,4.67
2022-11-06T19:17:22.944Z,4.55
2022-11-06T19:19:52.819Z,4.71
2022-11-06T19:22:22.511Z,4.57
2022-11-06T19:24:52.327Z,4.81
2022-11-06T19:27:22.104Z,4.50
2022-11-06T19:29:52.586Z,4.40
2022-11-06T19:32:22.355Z,4.33
2022-11-06T19:34:52.323Z,4.51
2022-11-06T19:37:21.900Z,4.55
2022-11-06T19:39:53.632Z,4.32
2022-11-06T19:42:24.097Z,4.46
2022-11-06T19:44:55.074Z,4.20
2022-11-06T19:47:24.616Z,4.21
2022-11-06T19:49:55.629Z,4.13
2022-11-06T19:52:42.663Z,4.12
2022-11-06T19:55:25.660Z,4.06
2022-11-06T19:57:33.243Z,4.03
2022-11-06T20:00:10.164Z,4.06
2022-11-06T20:02:38.018Z,4.09
2022-11-06T20:05:07.940Z,4.23
2022-11-06T20:07:38.467Z,4.26
2022-11-06T20:10:10.179Z,4.34
2022-11-06T20:12:41.108Z,4.30
2022-11-06T20:15:11.288Z,4.31
2022-11-06T20:17:41.456Z,4.13
2022-11-06T20:20:12.243Z,4.16
2022-11-06T20:22:42.468Z,4.09
2022-11-06T20:25:13.365Z,4.04
2022-11-06T20:27:43.366Z,3.95
2022-11-06T20:30:13.339Z,4.07
2022-11-06T20:32:45.059Z,4.28
2022-11-06T20:35:16.516Z,3.97
2022-11-06T20:37:47.160Z,4.14
2022-11-06T20:40:17.844Z,3.90
2022-11-06T20:42:47.412Z,3.91
2022-11-06T20:45:17.157Z,3.75
2022-11-06T20:47:47.387Z,3.92
2022-11-06T20:50:17.502Z,4.03
2022-11-06T20:52:48.047Z,4.17
2022-11-06T20:55:17.565Z,3.87
2022-11-06T20:57:47.571Z,3.93
2022-11-06T21:00:18.527Z,3.80
2022-11-06T21:02:48.934Z,3.75
2022-11-06T21:05:18.900Z,3.86
2022-11-06T21:07:48.751Z,3.79
2022-11-06T21:10:18.449Z,3.61
2022-11-06T21:12:49.261Z,3.69
2022-11-06T21:15:18.866Z,3.57
2022-11-06T21:17:48.691Z,3.69
2022-11-06T21:20:22.741Z,3.46
2022-11-06T21:22:51.810Z,3.34
2022-11-06T21:25:21.858Z,3.36
2022-11-06T21:27:51.959Z,3.34
2022-11-06T21:30:21.496Z,3.27
2022-11-06T21:32:51.381Z,3.27
2022-11-06T21:35:21.062Z,3.19
2022-11-06T21:37:50.914Z,3.14
2022-11-06T21:40:21.623Z,2.95
2022-11-06T21:42:51.606Z,3.10
2022-11-06T21:45:21.304Z,3.06
2022-11-06T21:47:52.913Z,3.07
2022-11-06T21:50:29.416Z,3.00
2022-11-06T21:53:12.619Z,2.99
2022-11-06T21:56:00.736Z,2.92
2022-11-06T21:58:31.088Z,2.97
2022-11-06T22:01:05.384Z,3.41
2022-11-06T22:03:35.770Z,3.47
2022-11-06T22:06:09.625Z,3.48
2022-11-06T22:08:43.919Z,3.26
2022-11-06T22:11:27.998Z,3.25
2022-11-06T22:14:00.218Z,3.27
2022-11-06T22:16:33.402Z,3.00
2022-11-06T22:19:03.991Z,3.00
2022-11-06T22:21:35.664Z,2.96
2022-11-06T22:24:07.130Z,2.73
2022-11-06T22:26:40.843Z,2.72
2022-11-06T22:29:13.850Z,2.54
2022-11-06T22:31:43.786Z,2.61
2022-11-06T22:34:14.262Z,2.58
2022-11-06T22:36:43.773Z,2.56
2022-11-06T22:39:13.672Z,2.22
2022-11-06T22:41:43.589Z,2.29
2022-11-06T22:44:13.669Z,2.26
2022-11-06T22:46:43.781Z,2.20
2022-11-06T22:49:13.465Z,2.37
2022-11-06T22:51:43.790Z,2.17
2022-11-06T22:54:13.631Z,1.99
2022-11-06T22:56:43.448Z,2.10
2022-11-06T22:59:13.828Z,2.05
2022-11-06T23:01:44.213Z,2.13
2022-11-06T23:04:15.963Z,1.95
2022-11-06T23:06:46.618Z,1.93
2022-11-06T23:09:17.052Z,2.03
2022-11-06T23:11:47.367Z,2.14
2022-11-06T23:14:17.119Z,1.85
2022-11-06T23:17:00.855Z,1.75
2022-11-06T23:19:32.778Z,2.17
2022-11-06T23:22:20.077Z,2.32
2022-11-06T23:24:50.299Z,2.36
2022-11-06T23:27:20.642Z,2.48
2022-11-06T23:29:50.298Z,2.49
2022-11-06T23:32:20.127Z,2.43
2022-11-06T23:34:51.555Z,2.47
2022-11-06T23:37:21.287Z,2.44
2022-11-06T23:39:52.081Z,2.51
2022-11-06T23:42:23.478Z,2.39
2022-11-06T23:45:09.934Z,2.43
2022-11-06T23:47:39.527Z,2.38
2022-11-06T23:50:09.446Z,2.45
2022-11-06T23:52:39.423Z,2.54
2022-11-06T23:55:09.656Z,2.57
2022-11-06T23:57:39.731Z,2.54
